Lobo

Go HERE for most recent data if this page is not up to date.

Jump to table bottom
Date/Time Temp deg F RH % 24 Hr Snow (in) Snow Depth (in) H2O (in)
06/24 12:00 64.8 31 "NAN" 1.6 0.00
06/24 11:00 63.8 31 "NAN" 1.4 0.00
06/24 10:00 62.7 32 "NAN" 1.5 0.00
06/24 09:00 61.0 32 "NAN" 1.4 0.00
06/24 08:00 59.2 33 "NAN" 1.2 0.00
06/24 07:00 58.1 33 "NAN" 1.2 0.00
06/24 06:00 58.0 34 "NAN" 1.1 0.00
06/24 05:00 58.3 30 "NAN" 1.5 0.00
06/24 04:00 58.3 31 "NAN" 1.4 0.00
06/24 03:00 59.1 33 "NAN" 0.9 0.00
06/24 02:00 60.1 29 "NAN" 1.2 0.00
06/24 01:00 60.4 29 "NAN" 1.1 0.00
06/24 00:00 61.8 28 "NAN" 1.1 0.00
06/23 23:00 63.1 26 "NAN" 1.0 0.00
06/23 22:00 64.5 24 "NAN" 0.8 0.00
06/23 21:00 66.1 22 "NAN" 0.9 0.00
06/23 20:00 68.5 21 "NAN" 0.9 0.00
06/23 19:00 69.5 23 "NAN" 0.9 0.00
06/23 18:00 70.4 21 "NAN" 1.1 0.00
06/23 17:00 72.3 18 "NAN" 1.0 0.00
06/23 16:00 71.4 19 "NAN" 1.0 0.00
06/23 15:00 70.5 22 "NAN" 1.2 0.00
06/23 14:00 70.4 24 "NAN" 1.4 0.00
06/23 13:00 70.4 20 "NAN" 1.2 0.00
06/23 12:00 70.6 20 "NAN" 1.5 0.00
06/23 11:00 69.5 20 "NAN" 1.1 0.00
06/23 10:00 67.5 20 "NAN" 0.8 0.00
06/23 09:00 63.5 23 "NAN" 0.8 0.00
06/23 08:00 58.6 26 "NAN" 1.0 0.00
06/23 07:00 55.7 32 "NAN" 1.0 0.00
06/23 06:00 55.1 29 "NAN" 1.0 0.00
06/23 05:00 55.8 30 "NAN" 0.8 0.00
06/23 04:00 57.2 28 "NAN" 0.7 0.00
06/23 03:00 57.0 31 "NAN" 0.6 0.00
06/23 02:00 58.9 29 "NAN" 0.8 0.00
06/23 01:00 58.1 28 "NAN" 0.9 0.00
06/23 00:00 59.0 30 "NAN" 0.7 0.00
.